Aigle Des Mers — FO4883 — position and weather

sailwx.info

Track history (hours):
 
Tides and Currents Weather Stations Pressure Air Temp Water Temp Dewpoint Dewpoint Depression Visibility Wind Speed Wind Dir Waves Ship Positions

Aigle Des Mers

Last reported at 2015-Jul-01 03:11 UTC. Time now 2015-Jul-02 09:46 UTC.
Position N 47°49' W 004°23'.

Type: Fishing. MMSI: 227318010.

Date/timePositionNaut miles runAvg speedWind from/ knotsBaromVisibWave heightAir tempDewpointWater temp
2015-Jul-01 03:11N 47°49' W 004°23'0 0.0
2015-Jul-01 02:33N 47°49' W 004°23'0 0.0
2015-Jul-01 01:29N 47°49' W 004°23'0 0.1
2015-Jul-01 00:32N 47°49' W 004°23'3 2.5
2015-Jun-30 23:28N 47°46' W 004°22'3 3.2
2015-Jun-30 22:33N 47°45' W 004°18'2 1.8
2015-Jun-30 21:33N 47°45' W 004°16'6 0.1
2015-Jun-29 00:30N 47°49' W 004°23'0 0.0
2015-Jun-28 23:31N 47°49' W 004°23'6 6.4
2015-Jun-28 22:33N 47°45' W 004°16'3 3.2
2015-Jun-28 21:33N 47°44' W 004°12'2 1.7
2015-Jun-28 20:34N 47°44' W 004°14'8 7.9
2015-Jun-28 19:33N 47°48' W 004°24'  
2015-Jun-26 03:32N 47°49' W 004°23'6 6.2
2015-Jun-26 02:33N 47°53' W 004°30'7 7.0
2015-Jun-26 01:33N 47°58' W 004°37'7 7.2
2015-Jun-26 00:33N 47°51' W 004°32'3 2.8
2015-Jun-25 23:33N 47°54' W 004°30'3 2.4
2015-Jun-25 22:29N 47°55' W 004°34'4 4.7
2015-Jun-25 21:33N 47°58' W 004°38'3 2.7
2015-Jun-25 20:33N 47°56' W 004°37'9 9.0
2015-Jun-25 19:33N 47°50' W 004°26'3 0.1
2015-Jun-25 01:33N 47°49' W 004°23'0 0.0
2015-Jun-25 00:30N 47°49' W 004°23'7 7.9
2015-Jun-24 23:34N 47°54' W 004°31'5 4.6
2015-Jun-24 22:33N 47°56' W 004°37'0 0.4
2015-Jun-24 21:34N 47°56' W 004°37'6 4.2
2015-Jun-24 20:05N 47°51' W 004°31'6 8.5
2015-Jun-24 19:21N 47°48' W 004°23'5 0.2
2015-Jun-23 23:33N 47°50' W 004°30'8 6.2
2015-Jun-23 22:13N 47°50' W 004°42'13 0.3
2015-Jun-22 05:22N 47°49' W 004°23'7 3.7
2015-Jun-22 03:33N 47°54' W 004°30'4 4.0
2015-Jun-22 02:34N 47°56' W 004°35'2 1.4
2015-Jun-22 01:29N 47°57' W 004°36'2 2.3
2015-Jun-22 00:29N 47°56' W 004°33'2 2.6
2015-Jun-21 23:34N 47°56' W 004°37'4 3.1
2015-Jun-21 22:11N 47°56' W 004°43'6 9.3
2015-Jun-21 21:33N 47°56' W 004°52'3 3.3
2015-Jun-21 20:33N 47°58' W 004°49'4 3.7
2015-Jun-21 19:34N 48°01' W 004°52'9 8.6
2015-Jun-21 18:34N 48°05' W 004°40'9 8.6
2015-Jun-21 17:34N 48°06' W 004°27'  
Track history (hours):
 
Tides and Currents Weather Stations Pressure Air Temp Water Temp Dewpoint Dewpoint Depression Visibility Wind Speed Wind Dir Waves Ship Positions

Aigle Des Mers

Last reported at 2015-Jul-01 03:11 UTC. Time now 2015-Jul-02 09:46 UTC.
Position N 47°49' W 004°23'.

Type: Fishing. MMSI: 227318010.

Date/timePositionNaut miles runAvg speedWind from/ knotsBaromVisibWave heightAir tempDewpointWater temp
2015-Jul-01 03:11N 47°49' W 004°23'0 0.0
2015-Jul-01 02:33N 47°49' W 004°23'0 0.0
2015-Jul-01 01:29N 47°49' W 004°23'0 0.1
2015-Jul-01 00:32N 47°49' W 004°23'3 2.5
2015-Jun-30 23:28N 47°46' W 004°22'3 3.2
2015-Jun-30 22:33N 47°45' W 004°18'2 1.8
2015-Jun-30 21:33N 47°45' W 004°16'6 0.1
2015-Jun-29 00:30N 47°49' W 004°23'0 0.0
2015-Jun-28 23:31N 47°49' W 004°23'6 6.4
2015-Jun-28 22:33N 47°45' W 004°16'3 3.2
2015-Jun-28 21:33N 47°44' W 004°12'2 1.7
2015-Jun-28 20:34N 47°44' W 004°14'8 7.9
2015-Jun-28 19:33N 47°48' W 004°24'  
2015-Jun-26 03:32N 47°49' W 004°23'6 6.2
2015-Jun-26 02:33N 47°53' W 004°30'7 7.0
2015-Jun-26 01:33N 47°58' W 004°37'7 7.2
2015-Jun-26 00:33N 47°51' W 004°32'3 2.8
2015-Jun-25 23:33N 47°54' W 004°30'3 2.4
2015-Jun-25 22:29N 47°55' W 004°34'4 4.7
2015-Jun-25 21:33N 47°58' W 004°38'3 2.7
2015-Jun-25 20:33N 47°56' W 004°37'9 9.0
2015-Jun-25 19:33N 47°50' W 004°26'3 0.1
2015-Jun-25 01:33N 47°49' W 004°23'0 0.0
2015-Jun-25 00:30N 47°49' W 004°23'7 7.9
2015-Jun-24 23:34N 47°54' W 004°31'5 4.6
2015-Jun-24 22:33N 47°56' W 004°37'0 0.4
2015-Jun-24 21:34N 47°56' W 004°37'6 4.2
2015-Jun-24 20:05N 47°51' W 004°31'6 8.5
2015-Jun-24 19:21N 47°48' W 004°23'5 0.2
2015-Jun-23 23:33N 47°50' W 004°30'8 6.2
2015-Jun-23 22:13N 47°50' W 004°42'13 0.3
2015-Jun-22 05:22N 47°49' W 004°23'7 3.7
2015-Jun-22 03:33N 47°54' W 004°30'4 4.0
2015-Jun-22 02:34N 47°56' W 004°35'2 1.4
2015-Jun-22 01:29N 47°57' W 004°36'2 2.3
2015-Jun-22 00:29N 47°56' W 004°33'2 2.6
2015-Jun-21 23:34N 47°56' W 004°37'4 3.1
2015-Jun-21 22:11N 47°56' W 004°43'6 9.3
2015-Jun-21 21:33N 47°56' W 004°52'3 3.3
2015-Jun-21 20:33N 47°58' W 004°49'4 3.7
2015-Jun-21 19:34N 48°01' W 004°52'9 8.6
2015-Jun-21 18:34N 48°05' W 004°40'9 8.6
2015-Jun-21 17:34N 48°06' W 004°27'  

Dump ship's entire track history